createdAt,value
2023-10-04T00:00:19.940Z,14.62
2023-10-04T00:02:50.900Z,14.73
2023-10-04T00:05:22.305Z,14.81
2023-10-04T00:07:51.813Z,14.82
2023-10-04T00:10:22.852Z,14.81
2023-10-04T00:12:52.181Z,14.63
2023-10-04T00:15:21.952Z,14.64
2023-10-04T00:17:54.454Z,14.62
2023-10-04T00:20:32.808Z,14.70
2023-10-04T00:23:01.306Z,14.85
2023-10-04T00:25:30.100Z,14.93
2023-10-04T00:27:58.754Z,14.96
2023-10-04T00:30:28.927Z,14.87
2023-10-04T00:32:57.879Z,14.76
2023-10-04T00:35:27.922Z,14.67
2023-10-04T00:37:58.841Z,14.66
2023-10-04T00:40:29.547Z,14.69
2023-10-04T00:43:00.718Z,14.51
2023-10-04T00:45:33.654Z,14.41
2023-10-04T00:48:06.167Z,14.41
2023-10-04T00:50:38.050Z,14.31
2023-10-04T00:53:09.345Z,14.43
2023-10-04T00:55:40.365Z,14.56
2023-10-04T00:58:09.612Z,14.59
2023-10-04T01:00:40.036Z,14.64
2023-10-04T01:03:08.756Z,14.67
2023-10-04T01:05:41.882Z,14.69
2023-10-04T01:08:11.204Z,14.69
2023-10-04T01:10:39.922Z,14.94
2023-10-04T01:13:11.302Z,15.10
2023-10-04T01:15:40.891Z,15.09
2023-10-04T01:18:13.251Z,15.01
2023-10-04T01:20:43.392Z,15.02
2023-10-04T01:23:13.220Z,15.00
2023-10-04T01:25:43.168Z,14.94
2023-10-04T01:28:14.772Z,14.97
2023-10-04T01:30:43.879Z,15.01
2023-10-04T01:33:17.058Z,14.92
2023-10-04T01:35:47.317Z,14.91
2023-10-04T01:38:17.309Z,14.95
2023-10-04T01:40:51.183Z,15.00
2023-10-04T01:43:21.279Z,15.03
2023-10-04T01:45:54.538Z,15.01
2023-10-04T01:48:24.840Z,15.05
2023-10-04T01:50:55.273Z,15.04
2023-10-04T01:53:28.861Z,15.09
2023-10-04T01:56:00.517Z,15.18
2023-10-04T01:58:30.732Z,15.17
2023-10-04T02:01:02.425Z,15.20
2023-10-04T02:03:32.644Z,15.17
2023-10-04T02:06:03.538Z,15.22
2023-10-04T02:08:35.265Z,15.20
2023-10-04T02:11:08.077Z,15.21
2023-10-04T02:13:39.024Z,15.21
2023-10-04T02:16:10.272Z,15.17
2023-10-04T02:18:42.029Z,15.15
2023-10-04T02:21:12.496Z,15.18
2023-10-04T02:23:44.463Z,15.16
2023-10-04T02:26:14.417Z,15.17
2023-10-04T02:28:47.122Z,15.19
2023-10-04T02:31:16.720Z,15.09
2023-10-04T02:33:47.350Z,15.07
2023-10-04T02:36:16.582Z,15.12
2023-10-04T02:38:47.779Z,15.03
2023-10-04T02:41:17.434Z,15.02
2023-10-04T02:43:46.814Z,14.95
2023-10-04T02:46:18.204Z,14.77
2023-10-04T02:48:49.679Z,14.80
2023-10-04T02:51:20.180Z,14.89
2023-10-04T02:53:53.246Z,14.91
2023-10-04T02:56:24.697Z,14.92
2023-10-04T02:58:55.788Z,14.85
2023-10-04T03:01:26.164Z,14.88
2023-10-04T03:03:55.277Z,14.92
2023-10-04T03:06:24.728Z,14.80
2023-10-04T03:08:56.566Z,14.65
2023-10-04T03:11:26.771Z,14.53
2023-10-04T03:13:55.153Z,14.52
2023-10-04T03:16:23.511Z,14.50
2023-10-04T03:18:51.957Z,14.49
2023-10-04T03:21:21.812Z,14.51
2023-10-04T03:23:50.710Z,14.50
2023-10-04T03:26:20.645Z,14.57
2023-10-04T03:28:49.525Z,14.56
2023-10-04T03:31:19.822Z,14.67
2023-10-04T03:33:50.466Z,14.74
2023-10-04T03:36:20.260Z,14.76
2023-10-04T03:38:50.737Z,14.61
2023-10-04T03:41:21.038Z,14.47
2023-10-04T03:43:50.268Z,14.39
2023-10-04T03:46:21.543Z,14.21
2023-10-04T03:48:52.648Z,14.14
2023-10-04T03:51:24.920Z,14.08
2023-10-04T03:53:54.730Z,14.12
2023-10-04T03:56:27.151Z,14.13
2023-10-04T03:58:58.459Z,14.10
2023-10-04T04:01:28.211Z,14.15
2023-10-04T04:04:03.628Z,14.31
2023-10-04T04:06:32.184Z,14.30
2023-10-04T04:09:08.330Z,14.32
2023-10-04T04:11:38.269Z,14.28
2023-10-04T04:14:09.422Z,14.20
2023-10-04T04:16:39.173Z,14.19
2023-10-04T04:19:07.846Z,14.20
2023-10-04T04:21:37.515Z,14.18
2023-10-04T04:24:07.964Z,14.22
2023-10-04T04:26:37.983Z,14.21
2023-10-04T04:29:10.985Z,14.24
2023-10-04T04:31:41.841Z,14.36
2023-10-04T04:34:14.536Z,14.49
2023-10-04T04:36:43.519Z,14.60
2023-10-04T04:39:17.950Z,14.58
2023-10-04T04:41:50.636Z,14.60
2023-10-04T04:44:22.195Z,14.62
2023-10-04T04:46:50.609Z,14.76
2023-10-04T04:49:20.498Z,15.01
2023-10-04T04:51:49.159Z,15.26
2023-10-04T04:54:20.010Z,15.37
2023-10-04T04:56:49.823Z,15.50
2023-10-04T04:59:22.272Z,15.68
2023-10-04T05:01:52.603Z,15.89
2023-10-04T05:04:24.108Z,16.11
2023-10-04T05:06:52.592Z,16.27
2023-10-04T05:09:21.047Z,16.40
2023-10-04T05:11:50.788Z,16.58
2023-10-04T05:14:19.649Z,16.76
2023-10-04T05:16:51.005Z,16.79
2023-10-04T05:19:19.660Z,16.90
2023-10-04T05:21:48.103Z,16.97
2023-10-04T05:24:16.411Z,17.04
2023-10-04T05:26:44.921Z,17.26
2023-10-04T05:29:14.879Z,17.49
2023-10-04T05:31:44.052Z,17.69
2023-10-04T05:34:13.277Z,17.91
2023-10-04T05:36:42.254Z,17.83
2023-10-04T05:39:16.142Z,17.88
2023-10-04T05:41:44.605Z,18.08
2023-10-04T05:44:14.567Z,17.86
2023-10-04T05:46:46.113Z,18.02
2023-10-04T05:49:14.547Z,18.30
2023-10-04T05:51:43.081Z,18.40
2023-10-04T05:54:12.142Z,18.40
2023-10-04T05:56:42.125Z,18.44
2023-10-04T05:59:12.139Z,18.72
2023-10-04T06:01:43.170Z,19.02
2023-10-04T06:04:12.537Z,19.43
2023-10-04T06:06:42.797Z,20.23
2023-10-04T06:09:11.907Z,20.99
2023-10-04T06:11:40.421Z,21.54
2023-10-04T06:14:08.770Z,21.85
2023-10-04T06:16:37.515Z,22.27
2023-10-04T06:19:19.712Z,22.45
2023-10-04T06:21:55.731Z,22.53
2023-10-04T06:24:24.021Z,22.40
2023-10-04T06:26:52.446Z,22.40
2023-10-04T06:29:21.014Z,22.15
2023-10-04T06:31:49.387Z,21.73
2023-10-04T06:34:19.132Z,21.05
2023-10-04T06:36:47.545Z,20.79
2023-10-04T06:39:16.172Z,20.14
2023-10-04T06:41:44.578Z,19.86
2023-10-04T06:44:12.897Z,19.74
2023-10-04T06:46:41.272Z,19.57
2023-10-04T06:49:10.303Z,19.50
2023-10-04T06:51:40.116Z,19.54
2023-10-04T06:54:08.760Z,19.48
2023-10-04T06:56:37.109Z,19.38
2023-10-04T06:59:07.050Z,19.41
2023-10-04T07:01:36.962Z,19.37
2023-10-04T07:04:05.597Z,19.42
2023-10-04T07:06:34.474Z,19.46
2023-10-04T07:09:06.092Z,19.37
2023-10-04T07:11:35.062Z,19.47
2023-10-04T07:14:05.741Z,19.54
2023-10-04T07:16:34.605Z,19.77
2023-10-04T07:19:05.361Z,19.84
2023-10-04T07:21:33.963Z,19.91
2023-10-04T07:24:05.088Z,19.84
2023-10-04T07:26:37.374Z,19.60
2023-10-04T07:29:06.099Z,19.75
2023-10-04T07:31:36.429Z,19.97
2023-10-04T07:34:05.074Z,20.04
2023-10-04T07:36:34.633Z,19.89
2023-10-04T07:39:05.467Z,19.95
2023-10-04T07:41:33.844Z,19.92
2023-10-04T07:44:02.206Z,20.01
2023-10-04T07:46:30.830Z,20.00
2023-10-04T07:49:00.621Z,20.14
2023-10-04T07:51:29.685Z,20.19
2023-10-04T07:53:58.070Z,20.26
2023-10-04T07:56:29.405Z,20.29
2023-10-04T07:58:58.776Z,20.31
2023-10-04T08:01:27.176Z,20.26
2023-10-04T08:03:56.263Z,20.16
2023-10-04T08:06:24.796Z,20.24
2023-10-04T08:08:53.959Z,19.88
2023-10-04T08:11:22.767Z,20.06
2023-10-04T08:13:52.577Z,20.23
2023-10-04T08:16:21.091Z,20.34
2023-10-04T08:18:49.518Z,20.48
2023-10-04T08:21:18.367Z,20.53
2023-10-04T08:23:46.948Z,20.47
2023-10-04T08:26:16.145Z,20.36
2023-10-04T08:28:45.267Z,20.35
2023-10-04T08:31:17.479Z,20.38
2023-10-04T08:33:45.999Z,20.51
2023-10-04T08:36:18.537Z,20.54
2023-10-04T08:38:47.586Z,20.61
2023-10-04T08:41:17.761Z,20.61
2023-10-04T08:43:46.694Z,20.44
2023-10-04T08:46:19.271Z,20.41
2023-10-04T08:48:55.208Z,20.59
2023-10-04T08:51:35.344Z,20.87
2023-10-04T08:54:13.441Z,21.05
2023-10-04T08:56:49.255Z,21.13
2023-10-04T08:59:19.947Z,21.16
2023-10-04T09:01:52.042Z,21.11
2023-10-04T09:04:22.186Z,21.04
2023-10-04T09:06:50.719Z,21.03
2023-10-04T09:09:19.755Z,21.12
2023-10-04T09:11:48.930Z,21.00
2023-10-04T09:14:17.290Z,21.03
2023-10-04T09:16:45.698Z,21.00
2023-10-04T09:19:18.719Z,20.94
2023-10-04T09:21:48.208Z,20.87
2023-10-04T09:24:17.845Z,20.90
2023-10-04T09:26:54.267Z,20.92
2023-10-04T09:29:31.937Z,21.11
2023-10-04T09:32:01.064Z,21.24
2023-10-04T09:34:32.769Z,21.04
2023-10-04T09:37:01.913Z,21.15
2023-10-04T09:39:32.533Z,21.16
2023-10-04T09:42:06.277Z,21.08
2023-10-04T09:44:37.342Z,21.24
2023-10-04T09:47:07.039Z,21.11
2023-10-04T09:49:41.832Z,21.15
2023-10-04T09:52:13.664Z,21.17
2023-10-04T09:54:42.437Z,21.29
2023-10-04T09:57:13.592Z,21.45
2023-10-04T09:59:47.380Z,21.54
2023-10-04T10:02:18.566Z,21.63
2023-10-04T10:04:51.368Z,21.67
2023-10-04T10:07:23.571Z,21.49
2023-10-04T10:10:02.570Z,21.47
2023-10-04T10:12:34.531Z,21.39
2023-10-04T10:15:04.361Z,21.39
2023-10-04T10:17:35.572Z,21.43
2023-10-04T10:20:06.902Z,21.45
2023-10-04T10:22:35.242Z,21.41
2023-10-04T10:25:16.519Z,21.47
2023-10-04T10:27:46.352Z,21.34
2023-10-04T10:30:18.126Z,21.20
2023-10-04T10:32:58.875Z,21.27
2023-10-04T10:36:01.225Z,21.24
2023-10-04T10:38:30.508Z,21.16
2023-10-04T10:40:59.056Z,21.18
2023-10-04T10:43:27.524Z,21.24
2023-10-04T10:45:57.624Z,21.28
2023-10-04T10:48:35.386Z,21.24
2023-10-04T10:51:06.403Z,21.29
2023-10-04T10:53:35.336Z,21.26
2023-10-04T10:56:04.531Z,21.21
2023-10-04T10:58:33.079Z,21.17
2023-10-04T11:01:02.656Z,21.13
2023-10-04T11:03:32.729Z,21.21
2023-10-04T11:06:01.296Z,21.13
2023-10-04T11:08:32.078Z,21.15
2023-10-04T11:11:01.700Z,21.17
2023-10-04T11:13:35.108Z,21.14
2023-10-04T11:16:09.042Z,21.15
2023-10-04T11:18:40.171Z,21.14
2023-10-04T11:21:09.138Z,21.18
2023-10-04T11:23:39.721Z,21.08
2023-10-04T11:26:10.397Z,21.10
2023-10-04T11:28:41.553Z,21.13
2023-10-04T11:31:10.093Z,21.15
2023-10-04T11:33:51.503Z,21.15
2023-10-04T11:36:24.730Z,21.09
2023-10-04T11:38:55.302Z,21.14
2023-10-04T11:41:30.080Z,21.16
2023-10-04T11:44:04.338Z,21.11
2023-10-04T11:46:59.421Z,21.09
2023-10-04T11:49:29.602Z,21.12
2023-10-04T11:52:01.338Z,21.16
2023-10-04T11:54:42.702Z,21.13
2023-10-04T11:57:11.495Z,21.18
2023-10-04T11:59:40.892Z,21.13
2023-10-04T12:02:09.343Z,21.14
2023-10-04T12:04:39.024Z,21.14
2023-10-04T12:07:09.107Z,21.12
2023-10-04T12:09:38.170Z,21.11
2023-10-04T12:12:08.182Z,21.11
2023-10-04T12:14:37.218Z,21.09
2023-10-04T12:17:07.328Z,21.06
2023-10-04T12:19:37.903Z,21.17
2023-10-04T12:22:10.102Z,21.16
2023-10-04T12:24:38.924Z,21.06
2023-10-04T12:27:09.722Z,20.99
2023-10-04T12:29:38.754Z,20.99
2023-10-04T12:32:08.532Z,20.94
2023-10-04T12:34:36.980Z,20.96
2023-10-04T12:37:05.613Z,20.91
2023-10-04T12:39:39.526Z,20.93
2023-10-04T12:42:09.638Z,20.82
2023-10-04T12:44:39.309Z,20.86
2023-10-04T12:47:09.559Z,20.83
2023-10-04T12:49:39.114Z,20.83
2023-10-04T12:52:08.471Z,20.81
2023-10-04T12:54:37.665Z,20.78
2023-10-04T12:57:06.115Z,20.78
2023-10-04T12:59:36.568Z,20.80
2023-10-04T13:02:04.932Z,20.79
2023-10-04T13:04:33.442Z,20.80
2023-10-04T13:07:03.023Z,20.77
2023-10-04T13:09:44.560Z,20.76
2023-10-04T13:12:21.104Z,20.62
2023-10-04T13:14:54.526Z,20.65
2023-10-04T13:17:25.270Z,20.68
2023-10-04T13:19:53.888Z,20.69
2023-10-04T13:22:23.545Z,20.62
2023-10-04T13:24:54.517Z,20.59
2023-10-04T13:27:24.508Z,20.57
2023-10-04T13:29:54.700Z,20.51
2023-10-04T13:32:26.808Z,20.55
2023-10-04T13:34:55.890Z,20.51
2023-10-04T13:37:24.329Z,20.51
2023-10-04T13:39:52.769Z,20.50
2023-10-04T13:42:28.652Z,20.48
2023-10-04T13:45:00.699Z,20.47
2023-10-04T13:47:30.149Z,20.44
2023-10-04T13:49:59.229Z,20.40
2023-10-04T13:52:27.604Z,20.35
2023-10-04T13:54:57.578Z,20.32
2023-10-04T13:57:26.246Z,20.31
2023-10-04T13:59:55.082Z,20.27
2023-10-04T14:02:24.889Z,20.24
2023-10-04T14:04:53.337Z,20.26
2023-10-04T14:07:22.805Z,20.22
2023-10-04T14:09:51.164Z,20.21
2023-10-04T14:12:22.370Z,20.17
2023-10-04T14:14:52.656Z,20.20
2023-10-04T14:17:22.345Z,20.29
2023-10-04T14:19:52.070Z,20.32
2023-10-04T14:22:20.834Z,20.29
2023-10-04T14:24:49.552Z,20.16
2023-10-04T14:27:18.216Z,20.12
2023-10-04T14:29:47.602Z,20.20
2023-10-04T14:32:15.966Z,20.18
2023-10-04T14:34:44.186Z,20.17
2023-10-04T14:37:15.020Z,20.17
2023-10-04T14:39:43.349Z,20.14
2023-10-04T14:42:14.584Z,20.17
2023-10-04T14:44:44.360Z,20.16
2023-10-04T14:47:14.314Z,20.17
2023-10-04T14:49:45.764Z,20.07
2023-10-04T14:52:15.939Z,19.86
2023-10-04T14:54:44.574Z,19.77
2023-10-04T14:57:12.917Z,19.65
2023-10-04T14:59:41.206Z,19.56
2023-10-04T15:02:10.306Z,19.47
2023-10-04T15:04:40.454Z,19.46
2023-10-04T15:07:09.100Z,19.37
2023-10-04T15:09:39.639Z,19.27
2023-10-04T15:12:08.260Z,19.28
2023-10-04T15:14:37.149Z,19.23
2023-10-04T15:17:06.070Z,19.14
2023-10-04T15:19:34.506Z,19.11
2023-10-04T15:22:04.531Z,19.07
2023-10-04T15:24:33.092Z,19.01
2023-10-04T15:27:04.910Z,18.93
2023-10-04T15:29:33.968Z,18.89
2023-10-04T15:32:02.610Z,18.95
2023-10-04T15:34:31.166Z,18.97
2023-10-04T15:36:59.832Z,18.99
2023-10-04T15:39:32.467Z,18.89
2023-10-04T15:42:04.626Z,18.81
2023-10-04T15:44:32.989Z,18.73
2023-10-04T15:47:04.113Z,18.71
2023-10-04T15:49:35.737Z,18.65
2023-10-04T15:52:08.910Z,18.61
2023-10-04T15:54:39.982Z,18.57
2023-10-04T15:57:26.443Z,18.54
2023-10-04T15:59:54.660Z,18.46
2023-10-04T16:02:23.006Z,18.46
2023-10-04T16:04:52.711Z,18.47
2023-10-04T16:07:21.113Z,18.43
2023-10-04T16:09:49.588Z,18.43
2023-10-04T16:12:18.166Z,18.36
2023-10-04T16:14:49.200Z,18.34
2023-10-04T16:17:17.792Z,18.36
2023-10-04T16:19:47.007Z,18.32
2023-10-04T16:22:15.536Z,18.34
2023-10-04T16:24:43.959Z,18.35
2023-10-04T16:27:12.656Z,18.32
2023-10-04T16:29:42.030Z,18.32
2023-10-04T16:32:12.057Z,18.29
2023-10-04T16:34:42.998Z,18.28
2023-10-04T16:37:12.096Z,18.29
2023-10-04T16:39:40.466Z,18.31
2023-10-04T16:42:08.903Z,18.29
2023-10-04T16:44:37.163Z,18.26
2023-10-04T16:47:05.958Z,18.26
2023-10-04T16:49:35.936Z,18.23
2023-10-04T16:52:04.524Z,18.22
2023-10-04T16:54:33.995Z,18.24
2023-10-04T16:57:02.320Z,18.22
2023-10-04T16:59:30.894Z,18.26
2023-10-04T17:01:59.300Z,18.21
2023-10-04T17:04:28.163Z,18.23
2023-10-04T17:06:57.961Z,18.18
2023-10-04T17:09:26.947Z,18.18
2023-10-04T17:11:55.678Z,18.20
2023-10-04T17:14:24.048Z,18.18
2023-10-04T17:16:52.497Z,18.23
2023-10-04T17:19:20.958Z,18.18
2023-10-04T17:21:49.459Z,18.17
2023-10-04T17:24:19.432Z,18.21
2023-10-04T17:26:48.650Z,18.18
2023-10-04T17:29:17.402Z,18.16
2023-10-04T17:31:45.976Z,18.15
2023-10-04T17:34:14.498Z,18.14
2023-10-04T17:36:42.907Z,18.18
2023-10-04T17:39:12.713Z,18.13
2023-10-04T17:41:42.676Z,18.11
2023-10-04T17:44:12.200Z,18.09
2023-10-04T17:46:40.778Z,18.11
2023-10-04T17:49:09.284Z,18.10
2023-10-04T17:51:38.245Z,18.04
2023-10-04T17:54:08.260Z,18.04
2023-10-04T17:56:38.539Z,18.10
2023-10-04T17:59:08.288Z,18.09
2023-10-04T18:01:36.777Z,18.11
2023-10-04T18:04:05.809Z,18.10
2023-10-04T18:06:34.494Z,18.17
2023-10-04T18:09:02.899Z,18.14
2023-10-04T18:11:31.834Z,18.05
2023-10-04T18:14:00.191Z,18.02
2023-10-04T18:16:30.332Z,17.99
2023-10-04T18:18:59.488Z,17.94
2023-10-04T18:21:28.930Z,17.85
2023-10-04T18:23:57.334Z,17.81
2023-10-04T18:26:25.730Z,17.76
2023-10-04T18:28:55.305Z,17.74
2023-10-04T18:31:24.000Z,17.64
2023-10-04T18:33:56.339Z,17.56
2023-10-04T18:36:26.495Z,17.51
2023-10-04T18:38:55.477Z,17.47
2023-10-04T18:41:24.003Z,17.47
2023-10-04T18:43:52.280Z,17.40
2023-10-04T18:46:22.208Z,17.37
2023-10-04T18:48:50.813Z,17.34
2023-10-04T18:51:21.152Z,17.33
2023-10-04T18:53:50.523Z,17.34
2023-10-04T18:56:18.979Z,17.34
2023-10-04T18:58:49.786Z,17.40
2023-10-04T19:01:18.925Z,17.38
2023-10-04T19:03:47.558Z,17.35
2023-10-04T19:06:16.602Z,17.28
2023-10-04T19:08:46.390Z,17.26
2023-10-04T19:11:22.208Z,17.21
2023-10-04T19:13:50.833Z,17.14
2023-10-04T19:16:19.555Z,17.09
2023-10-04T19:18:48.044Z,17.11
2023-10-04T19:21:16.390Z,17.09
2023-10-04T19:23:46.962Z,17.09
2023-10-04T19:26:16.577Z,17.08
2023-10-04T19:28:45.098Z,17.06
2023-10-04T19:31:13.535Z,17.07
2023-10-04T19:33:42.371Z,17.12
2023-10-04T19:36:12.009Z,17.21
2023-10-04T19:38:42.513Z,17.16
2023-10-04T19:41:15.136Z,17.16
2023-10-04T19:43:43.466Z,17.12
2023-10-04T19:46:13.483Z,17.06
2023-10-04T19:48:43.313Z,17.00
2023-10-04T19:51:11.764Z,17.02
2023-10-04T19:53:40.893Z,17.08
2023-10-04T19:56:09.784Z,17.25
2023-10-04T19:58:40.318Z,17.46
2023-10-04T20:01:08.792Z,17.43
2023-10-04T20:03:38.004Z,17.37
2023-10-04T20:06:10.556Z,17.36
2023-10-04T20:08:39.110Z,17.34
2023-10-04T20:11:08.801Z,17.32
2023-10-04T20:13:37.721Z,17.32
2023-10-04T20:16:11.611Z,17.32
2023-10-04T20:18:40.883Z,17.34
2023-10-04T20:21:16.533Z,17.41
2023-10-04T20:23:44.863Z,17.36
2023-10-04T20:26:13.503Z,17.39
2023-10-04T20:28:42.398Z,17.42
2023-10-04T20:31:12.412Z,17.43
2023-10-04T20:33:40.858Z,17.36
2023-10-04T20:36:09.608Z,17.34
2023-10-04T20:38:37.957Z,17.32
2023-10-04T20:41:06.600Z,17.35
2023-10-04T20:43:35.208Z,17.33
2023-10-04T20:46:03.705Z,17.29
2023-10-04T20:48:33.401Z,17.35
2023-10-04T20:51:02.277Z,17.35
2023-10-04T20:53:31.497Z,17.39
2023-10-04T20:56:01.193Z,17.33
2023-10-04T20:58:30.018Z,17.29
2023-10-04T21:00:59.139Z,17.23
2023-10-04T21:03:28.558Z,17.20
2023-10-04T21:05:58.410Z,17.06
2023-10-04T21:08:27.229Z,17.07
2023-10-04T21:10:55.833Z,17.12
2023-10-04T21:13:24.207Z,17.16
2023-10-04T21:15:52.679Z,17.19
2023-10-04T21:18:23.804Z,17.24
2023-10-04T21:20:53.123Z,17.31
2023-10-04T21:23:23.005Z,17.26
2023-10-04T21:25:51.584Z,17.19
2023-10-04T21:28:20.071Z,17.06
2023-10-04T21:30:54.449Z,16.87
2023-10-04T21:33:26.554Z,16.80
2023-10-04T21:36:08.523Z,16.75
2023-10-04T21:38:41.035Z,16.63
2023-10-04T21:41:09.498Z,16.68
2023-10-04T21:43:38.939Z,16.64
2023-10-04T21:46:11.174Z,16.64
2023-10-04T21:48:42.387Z,16.61
2023-10-04T21:51:15.969Z,16.65
2023-10-04T21:53:45.790Z,16.63
2023-10-04T21:56:14.890Z,16.67
2023-10-04T21:58:46.359Z,16.65
2023-10-04T22:01:18.804Z,16.62
2023-10-04T22:03:50.009Z,16.62
2023-10-04T22:06:18.803Z,16.63
2023-10-04T22:08:49.222Z,16.61
2023-10-04T22:11:18.177Z,16.55
2023-10-04T22:13:46.610Z,16.56
2023-10-04T22:16:15.613Z,16.55
2023-10-04T22:18:44.296Z,16.54
2023-10-04T22:21:12.652Z,16.50
2023-10-04T22:23:41.395Z,16.40
2023-10-04T22:26:12.563Z,16.41
2023-10-04T22:28:42.875Z,16.32
2023-10-04T22:31:11.288Z,16.30
2023-10-04T22:33:41.180Z,16.29
2023-10-04T22:36:10.808Z,16.29
2023-10-04T22:38:41.171Z,16.21
2023-10-04T22:41:11.178Z,16.18
2023-10-04T22:43:39.692Z,16.21
2023-10-04T22:46:08.038Z,16.12
2023-10-04T22:48:37.910Z,16.06
2023-10-04T22:51:06.399Z,16.01
2023-10-04T22:53:35.532Z,15.99
2023-10-04T22:56:05.793Z,15.99
2023-10-04T22:58:38.438Z,15.93
2023-10-04T23:01:12.535Z,16.06
2023-10-04T23:03:44.631Z,16.13
2023-10-04T23:06:14.090Z,16.24
2023-10-04T23:08:42.893Z,16.28
2023-10-04T23:11:12.216Z,16.21
2023-10-04T23:13:44.618Z,16.23
2023-10-04T23:16:15.309Z,16.25
2023-10-04T23:18:47.009Z,16.26
2023-10-04T23:21:25.273Z,16.26
2023-10-04T23:24:04.769Z,16.26
2023-10-04T23:26:33.018Z,16.23
2023-10-04T23:29:06.602Z,16.12
2023-10-04T23:31:38.614Z,16.02
2023-10-04T23:34:10.425Z,15.95
2023-10-04T23:36:41.509Z,15.92
2023-10-04T23:39:11.636Z,15.94
2023-10-04T23:41:44.016Z,15.98
2023-10-04T23:44:20.139Z,16.04
2023-10-04T23:46:51.055Z,16.07
2023-10-04T23:49:20.932Z,15.99
2023-10-04T23:51:50.052Z,15.90
2023-10-04T23:54:23.574Z,15.83
2023-10-04T23:57:14.435Z,15.81
2023-10-04T23:59:44.283Z,15.84
